createdAt,value
2022-12-16T00:02:01.857Z,32.72
2022-12-16T00:07:03.294Z,45.30
2022-12-16T00:12:05.275Z,39.95
2022-12-16T00:17:06.835Z,36.20
2022-12-16T00:22:08.255Z,43.42
2022-12-16T00:27:09.709Z,40.50
2022-12-16T00:32:11.099Z,38.00
2022-12-16T00:37:13.368Z,38.05
2022-12-16T00:42:14.839Z,35.10
2022-12-16T00:47:16.248Z,41.30
2022-12-16T00:52:17.686Z,39.60
2022-12-16T00:57:19.172Z,38.67
2022-12-16T01:02:20.670Z,36.63
2022-12-16T01:07:22.176Z,36.42
2022-12-16T01:12:24.104Z,42.63
2022-12-16T01:17:26.068Z,36.20
2022-12-16T01:22:32.837Z,41.45
2022-12-16T01:27:34.239Z,40.65
2022-12-16T01:32:36.092Z,36.85
2022-12-16T01:37:37.611Z,41.20
2022-12-16T01:42:39.152Z,36.78
2022-12-16T01:47:40.592Z,40.30
2022-12-16T01:52:48.842Z,42.83
2022-12-16T01:58:02.266Z,39.78
2022-12-16T02:03:04.499Z,36.00
2022-12-16T02:08:05.947Z,41.58
2022-12-16T02:13:26.400Z,42.08
2022-12-16T02:18:56.707Z,40.67
2022-12-16T02:24:13.625Z,41.05
2022-12-16T02:29:36.020Z,41.22
2022-12-16T02:34:57.311Z,41.83
2022-12-16T02:40:06.836Z,33.13
2022-12-16T02:45:15.866Z,32.27
2022-12-16T02:50:20.341Z,34.53
2022-12-16T02:55:32.749Z,29.85
2022-12-16T03:01:00.612Z,30.40
2022-12-16T03:06:04.697Z,37.80
2022-12-16T03:11:10.328Z,34.25
2022-12-16T03:16:17.647Z,27.80
2022-12-16T03:21:25.332Z,25.92
2022-12-16T03:27:02.421Z,36.25
2022-12-16T03:32:15.410Z,30.88
2022-12-16T03:37:20.476Z,27.58
2022-12-16T03:42:23.634Z,24.10
2022-12-16T03:47:29.197Z,29.33
2022-12-16T03:52:30.577Z,23.27
2022-12-16T03:57:31.954Z,27.83
2022-12-16T04:02:33.671Z,26.35
2022-12-16T04:07:35.245Z,30.92
2022-12-16T04:12:55.496Z,25.33
2022-12-16T04:28:37.709Z,17.63
2022-12-16T04:33:58.681Z,29.90
2022-12-16T04:39:18.495Z,24.55
2022-12-16T04:44:38.595Z,23.67
2022-12-16T04:49:58.864Z,24.60
2022-12-16T04:55:18.812Z,24.10
2022-12-16T05:00:38.730Z,24.90
2022-12-16T05:05:58.503Z,19.38
2022-12-16T05:11:18.308Z,20.85
2022-12-16T05:16:38.165Z,22.40
2022-12-16T05:21:57.906Z,22.17
2022-12-16T05:27:17.986Z,22.30
2022-12-16T05:32:37.694Z,21.75
2022-12-16T05:37:57.728Z,22.17
2022-12-16T05:43:17.589Z,22.65
2022-12-16T05:48:37.676Z,23.98
2022-12-16T05:53:57.551Z,20.10
2022-12-16T05:59:17.743Z,24.92
2022-12-16T06:04:37.674Z,20.10
2022-12-16T06:09:57.552Z,29.77
2022-12-16T06:15:17.443Z,24.42
2022-12-16T06:20:37.405Z,22.73
2022-12-16T06:25:58.159Z,28.35
2022-12-16T06:31:18.112Z,30.27
2022-12-16T06:36:38.460Z,25.33
2022-12-16T06:41:58.207Z,30.00
2022-12-16T06:47:18.132Z,25.67
2022-12-16T06:52:37.932Z,34.10
2022-12-16T06:57:57.713Z,37.78
2022-12-16T07:03:17.541Z,36.78
2022-12-16T07:08:37.570Z,25.25
2022-12-16T07:19:17.217Z,30.35
2022-12-16T07:24:37.151Z,23.77
2022-12-16T07:35:17.156Z,26.38
2022-12-16T07:40:37.007Z,26.80
2022-12-16T07:45:56.838Z,22.10
2022-12-16T07:51:16.757Z,21.23
2022-12-16T08:01:56.935Z,24.95
2022-12-16T08:07:17.066Z,37.58
2022-12-16T08:23:17.426Z,25.10
2022-12-16T08:28:37.225Z,24.08
2022-12-16T08:33:57.200Z,23.92
2022-12-16T08:39:17.116Z,25.88
2022-12-16T08:44:36.954Z,23.05
2022-12-16T08:49:59.903Z,22.95
2022-12-16T08:55:27.772Z,18.85
2022-12-16T09:00:49.445Z,20.10
2022-12-16T09:06:09.331Z,16.55
2022-12-16T09:11:29.331Z,14.52
2022-12-16T09:16:49.308Z,17.45
2022-12-16T09:22:09.256Z,16.17
2022-12-16T09:27:29.131Z,18.90
2022-12-16T09:32:49.155Z,17.70
2022-12-16T09:38:09.544Z,15.40
2022-12-16T09:49:25.207Z,24.42
2022-12-16T09:54:48.126Z,19.17
2022-12-16T10:00:19.685Z,21.50
2022-12-16T10:05:52.049Z,20.25
2022-12-16T10:11:26.155Z,21.73
2022-12-16T10:17:04.505Z,16.38
2022-12-16T10:22:33.235Z,18.40
2022-12-16T10:28:00.771Z,18.60
2022-12-16T10:33:21.254Z,17.10
2022-12-16T10:44:17.624Z,20.38
2022-12-16T10:49:38.696Z,17.13
2022-12-16T10:55:05.102Z,17.90
2022-12-16T11:00:55.986Z,19.95
2022-12-16T11:06:18.969Z,23.38
2022-12-16T11:11:49.976Z,24.65
2022-12-16T11:17:32.704Z,19.15
2022-12-16T11:22:52.337Z,21.17
2022-12-16T11:28:35.319Z,22.13
2022-12-16T11:33:55.672Z,20.60
2022-12-16T11:39:16.340Z,21.17
2022-12-16T11:49:58.848Z,24.33
2022-12-16T11:55:48.155Z,21.55
2022-12-16T12:01:16.589Z,20.65
2022-12-16T12:07:02.634Z,18.40
2022-12-16T12:12:41.532Z,20.02
2022-12-16T12:18:39.272Z,17.02
2022-12-16T12:24:16.085Z,17.70
2022-12-16T12:29:45.588Z,19.52
2022-12-16T12:35:27.129Z,22.77
2022-12-16T12:40:46.991Z,21.52
2022-12-16T12:46:15.858Z,23.43
2022-12-16T12:52:17.973Z,15.88
2022-12-16T12:57:44.606Z,19.85
2022-12-16T13:03:14.341Z,26.20
2022-12-16T13:08:55.996Z,24.00
2022-12-16T13:14:16.299Z,22.73
2022-12-16T13:19:48.235Z,20.57
2022-12-16T13:25:09.751Z,23.83
2022-12-16T13:30:29.513Z,26.02
2022-12-16T13:35:49.821Z,18.13
2022-12-16T13:41:17.959Z,19.58
2022-12-16T13:46:37.684Z,23.10
2022-12-16T13:51:57.636Z,22.80
2022-12-16T13:57:19.445Z,21.65
2022-12-16T14:03:10.136Z,25.95
2022-12-16T14:08:35.577Z,25.00
2022-12-16T14:14:20.908Z,20.95
2022-12-16T14:19:59.798Z,26.58
2022-12-16T14:25:32.371Z,24.70
2022-12-16T14:30:52.705Z,22.40
2022-12-16T14:36:12.723Z,22.23
2022-12-16T14:41:36.628Z,19.73
2022-12-16T14:46:57.148Z,18.33
2022-12-16T14:52:16.935Z,19.67
2022-12-16T14:57:39.344Z,21.15
2022-12-16T15:03:04.870Z,21.63
2022-12-16T15:08:30.135Z,24.50
2022-12-16T15:13:55.738Z,24.83
2022-12-16T15:19:20.909Z,28.95
2022-12-16T15:24:43.673Z,22.55
2022-12-16T15:30:04.182Z,21.02
2022-12-16T15:35:24.299Z,17.92
2022-12-16T15:40:49.191Z,12.88
2022-12-16T15:46:10.056Z,20.55
2022-12-16T15:51:50.535Z,23.65
2022-12-16T16:02:39.237Z,16.95
2022-12-16T16:08:03.804Z,20.67
2022-12-16T16:13:27.288Z,21.60
2022-12-16T16:18:47.241Z,30.65
2022-12-16T16:24:07.048Z,46.22
2022-12-16T16:29:29.594Z,36.65
2022-12-16T16:34:49.943Z,40.58
2022-12-16T16:45:30.266Z,23.87
2022-12-16T16:56:18.126Z,32.50
2022-12-16T17:01:39.844Z,28.08
2022-12-16T17:07:00.009Z,29.88
2022-12-16T17:12:19.826Z,27.63
2022-12-16T17:17:39.660Z,25.40
2022-12-16T17:22:59.869Z,31.48
2022-12-16T17:28:20.763Z,34.88
2022-12-16T17:33:40.632Z,24.00
2022-12-16T17:39:02.574Z,26.00
2022-12-16T17:44:23.009Z,24.23
2022-12-16T17:49:42.873Z,26.67
2022-12-16T17:55:02.710Z,30.90
2022-12-16T18:00:23.068Z,21.98
2022-12-16T18:11:04.848Z,25.92
2022-12-16T18:16:24.931Z,35.20
2022-12-16T18:21:45.027Z,30.58
2022-12-16T18:27:04.890Z,22.85
2022-12-16T18:32:24.800Z,30.85
2022-12-16T18:37:44.763Z,27.52
2022-12-16T18:43:04.936Z,34.25
2022-12-16T18:48:24.785Z,31.33
2022-12-16T18:53:44.707Z,41.63
2022-12-16T18:59:04.514Z,32.40
2022-12-16T19:04:24.400Z,33.15
2022-12-16T19:09:44.759Z,33.80
2022-12-16T19:20:29.925Z,35.53
2022-12-16T19:26:03.318Z,27.98
2022-12-16T19:36:51.048Z,39.03
2022-12-16T19:42:11.885Z,25.67
2022-12-16T19:47:31.720Z,28.23
2022-12-16T19:52:51.729Z,24.25
2022-12-16T19:58:11.659Z,33.08
2022-12-16T20:03:35.670Z,31.17
2022-12-16T20:08:55.840Z,28.13
2022-12-16T20:14:16.131Z,35.42
2022-12-16T20:19:37.434Z,28.67
2022-12-16T20:30:19.005Z,48.17
2022-12-16T20:35:38.897Z,42.78
2022-12-16T20:40:58.679Z,38.95
2022-12-16T20:46:18.567Z,35.60
2022-12-16T20:51:38.721Z,28.65
2022-12-16T21:02:31.635Z,28.58
2022-12-16T21:07:53.892Z,31.85
2022-12-16T21:13:13.800Z,22.50
2022-12-16T21:18:33.629Z,20.02
2022-12-16T21:23:53.526Z,19.73
2022-12-16T21:29:13.478Z,26.85
2022-12-16T21:34:33.309Z,33.80
2022-12-16T21:39:54.750Z,27.20
2022-12-16T21:45:29.555Z,30.77
2022-12-16T21:50:50.084Z,22.23
2022-12-16T21:56:11.455Z,27.45
2022-12-16T22:01:31.477Z,26.05
2022-12-16T22:12:11.928Z,28.27
2022-12-16T22:17:31.788Z,26.58
2022-12-16T22:22:51.749Z,28.85
2022-12-16T22:33:31.635Z,21.83
2022-12-16T22:38:52.537Z,37.88
2022-12-16T22:44:12.490Z,33.60
2022-12-16T22:49:33.058Z,29.88
2022-12-16T22:54:53.338Z,23.90
2022-12-16T23:00:13.285Z,19.60
2022-12-16T23:05:33.076Z,22.35
2022-12-16T23:10:52.992Z,19.67
2022-12-16T23:16:17.019Z,21.92
2022-12-16T23:21:38.196Z,21.88
2022-12-16T23:26:58.214Z,23.33
2022-12-16T23:37:38.211Z,20.00
2022-12-16T23:48:27.403Z,20.08
2022-12-16T23:53:47.107Z,31.65
2022-12-16T23:59:07.491Z,26.00
